VEJS/IXW METAR and TAF weather

Enter ICAO airport designator
Station Type Date Time Source
VEJS METAR 2021/01/16 03:00 UTC NOAA

VEJS 160300Z 29002KT 0500 FG NSC 13/10 Q1014


Station Type Date Time Source
VEJS Decoded METAR 2021/01/16 03:00 UTC NOAA

Jamshedpur, India (VEJS) 22-49N 086-11E 142M
Jan 15, 2021 - 10:00 PM EST / 2021.01.16 0300 UTC
Wind: from the WNW (290 degrees) at 2 MPH (2 KT):0
Visibility: less than 1 mile:0
Weather: fog
Temperature: 55 F (13 C)
Dew Point: 50 F (10 C)
Relative Humidity: 81%
Pressure (altimeter): 29.94 in. Hg (1014 hPa)
ob: VEJS 160300Z 29002KT 0500 FG NSC 13/10 Q1014
cycle: 3

Station Type Date Time Source
VEJS TAF 2009/11/01 09:00 UTC NOAA

TAF VEJS 010900Z 0112/0121 36004KT 2500 HZ FEW020 SCT025 SCT100
BECMG 0116/0118 00000KT 2000 HZ FEW018 SCT
BECMG 0119/0121 00000KT 1600 BR

Example: see airport list